sensor_id;sensor_type;location;lat;lon;timestamp;P1;durP1;ratioP1;P2;durP2;ratioP2
40675;SDS011;26359;48.750;9.314;2023-11-21T00:00:20;10.70;;;7.25;;
40675;SDS011;26359;48.750;9.314;2023-11-21T00:02:45;11.82;;;9.30;;
40675;SDS011;26359;48.750;9.314;2023-11-21T00:05:12;13.40;;;12.07;;
40675;SDS011;26359;48.750;9.314;2023-11-21T00:07:42;14.13;;;8.90;;
40675;SDS011;26359;48.750;9.314;2023-11-21T00:10:08;13.00;;;11.13;;
40675;SDS011;26359;48.750;9.314;2023-11-21T00:12:35;11.10;;;9.98;;
40675;SDS011;26359;48.750;9.314;2023-11-21T00:15:02;11.70;;;9.25;;
40675;SDS011;26359;48.750;9.314;2023-11-21T00:17:30;12.23;;;6.57;;
40675;SDS011;26359;48.750;9.314;2023-11-21T00:22:21;7.65;;;6.82;;
40675;SDS011;26359;48.750;9.314;2023-11-21T00:24:47;11.32;;;5.75;;
40675;SDS011;26359;48.750;9.314;2023-11-21T00:27:13;10.95;;;5.85;;
40675;SDS011;26359;48.750;9.314;2023-11-21T00:29:39;8.02;;;6.47;;
40675;SDS011;26359;48.750;9.314;2023-11-21T00:32:05;14.15;;;6.53;;
40675;SDS011;26359;48.750;9.314;2023-11-21T00:34:31;11.23;;;9.40;;
40675;SDS011;26359;48.750;9.314;2023-11-21T00:36:57;15.15;;;9.18;;
40675;SDS011;26359;48.750;9.314;2023-11-21T00:39:23;13.23;;;10.63;;
40675;SDS011;26359;48.750;9.314;2023-11-21T00:41:49;12.25;;;9.55;;
40675;SDS011;26359;48.750;9.314;2023-11-21T00:44:14;9.70;;;8.00;;
40675;SDS011;26359;48.750;9.314;2023-11-21T00:46:41;10.07;;;8.40;;
40675;SDS011;26359;48.750;9.314;2023-11-21T00:49:06;13.18;;;9.57;;
40675;SDS011;26359;48.750;9.314;2023-11-21T00:51:32;12.18;;;9.10;;
40675;SDS011;26359;48.750;9.314;2023-11-21T00:53:58;11.68;;;9.90;;
40675;SDS011;26359;48.750;9.314;2023-11-21T00:56:24;9.85;;;8.32;;
40675;SDS011;26359;48.750;9.314;2023-11-21T00:58:49;10.32;;;8.93;;
40675;SDS011;26359;48.750;9.314;2023-11-21T01:01:17;12.60;;;8.00;;
40675;SDS011;26359;48.750;9.314;2023-11-21T01:03:44;11.38;;;9.73;;
40675;SDS011;26359;48.750;9.314;2023-11-21T01:06:11;7.95;;;6.90;;
40675;SDS011;26359;48.750;9.314;2023-11-21T01:08:36;17.00;;;9.15;;
40675;SDS011;26359;48.750;9.314;2023-11-21T01:11:02;7.75;;;5.57;;
40675;SDS011;26359;48.750;9.314;2023-11-21T01:13:28;15.05;;;9.00;;
40675;SDS011;26359;48.750;9.314;2023-11-21T01:15:54;8.88;;;6.13;;
40675;SDS011;26359;48.750;9.314;2023-11-21T01:18:20;9.40;;;6.45;;
40675;SDS011;26359;48.750;9.314;2023-11-21T01:20:46;6.97;;;5.40;;
40675;SDS011;26359;48.750;9.314;2023-11-21T01:23:12;11.05;;;6.53;;
40675;SDS011;26359;48.750;9.314;2023-11-21T01:25:38;9.50;;;5.43;;
40675;SDS011;26359;48.750;9.314;2023-11-21T01:28:03;7.57;;;5.63;;
40675;SDS011;26359;48.750;9.314;2023-11-21T01:30:29;11.10;;;5.40;;
40675;SDS011;26359;48.750;9.314;2023-11-21T01:32:54;7.50;;;4.82;;
40675;SDS011;26359;48.750;9.314;2023-11-21T01:35:20;8.30;;;4.97;;
40675;SDS011;26359;48.750;9.314;2023-11-21T01:37:45;7.18;;;6.05;;
40675;SDS011;26359;48.750;9.314;2023-11-21T01:40:13;8.07;;;5.03;;
40675;SDS011;26359;48.750;9.314;2023-11-21T01:42:39;8.70;;;5.10;;
40675;SDS011;26359;48.750;9.314;2023-11-21T01:45:05;10.15;;;6.28;;
40675;SDS011;26359;48.750;9.314;2023-11-21T01:47:34;8.27;;;5.00;;
40675;SDS011;26359;48.750;9.314;2023-11-21T01:50:01;8.55;;;4.55;;
40675;SDS011;26359;48.750;9.314;2023-11-21T01:52:31;13.18;;;10.85;;
40675;SDS011;26359;48.750;9.314;2023-11-21T01:54:57;8.07;;;6.65;;
40675;SDS011;26359;48.750;9.314;2023-11-21T01:57:25;10.85;;;8.05;;
40675;SDS011;26359;48.750;9.314;2023-11-21T01:59:50;7.78;;;6.80;;
40675;SDS011;26359;48.750;9.314;2023-11-21T02:02:18;8.43;;;5.38;;
40675;SDS011;26359;48.750;9.314;2023-11-21T02:04:44;7.93;;;4.57;;
40675;SDS011;26359;48.750;9.314;2023-11-21T02:07:10;6.65;;;6.03;;
40675;SDS011;26359;48.750;9.314;2023-11-21T02:09:35;8.40;;;7.57;;
40675;SDS011;26359;48.750;9.314;2023-11-21T02:12:03;10.50;;;6.88;;
40675;SDS011;26359;48.750;9.314;2023-11-21T02:14:30;9.13;;;8.43;;
40675;SDS011;26359;48.750;9.314;2023-11-21T02:16:56;10.75;;;9.85;;
40675;SDS011;26359;48.750;9.314;2023-11-21T02:19:26;8.50;;;6.10;;
40675;SDS011;26359;48.750;9.314;2023-11-21T02:21:52;9.38;;;7.60;;
40675;SDS011;26359;48.750;9.314;2023-11-21T02:24:19;7.82;;;6.30;;
40675;SDS011;26359;48.750;9.314;2023-11-21T02:26:50;7.50;;;6.75;;
40675;SDS011;26359;48.750;9.314;2023-11-21T02:29:17;9.27;;;6.95;;
40675;SDS011;26359;48.750;9.314;2023-11-21T02:31:43;8.90;;;8.13;;
40675;SDS011;26359;48.750;9.314;2023-11-21T02:34:16;12.52;;;8.80;;
40675;SDS011;26359;48.750;9.314;2023-11-21T02:36:42;10.88;;;9.93;;
40675;SDS011;26359;48.750;9.314;2023-11-21T02:39:10;9.43;;;8.65;;
40675;SDS011;26359;48.750;9.314;2023-11-21T02:41:36;10.10;;;9.27;;
40675;SDS011;26359;48.750;9.314;2023-11-21T02:44:04;10.45;;;9.57;;
40675;SDS011;26359;48.750;9.314;2023-11-21T02:46:33;11.23;;;10.07;;
40675;SDS011;26359;48.750;9.314;2023-11-21T02:49:00;9.57;;;8.93;;
40675;SDS011;26359;48.750;9.314;2023-11-21T02:51:29;12.18;;;11.23;;
40675;SDS011;26359;48.750;9.314;2023-11-21T02:53:55;12.38;;;11.38;;
40675;SDS011;26359;48.750;9.314;2023-11-21T02:56:24;9.98;;;9.13;;
40675;SDS011;26359;48.750;9.314;2023-11-21T02:58:50;11.77;;;10.98;;
40675;SDS011;26359;48.750;9.314;2023-11-21T03:01:16;9.15;;;8.55;;
40675;SDS011;26359;48.750;9.314;2023-11-21T03:03:42;10.52;;;9.82;;
40675;SDS011;26359;48.750;9.314;2023-11-21T03:06:07;10.55;;;9.63;;
40675;SDS011;26359;48.750;9.314;2023-11-21T03:08:33;10.10;;;9.18;;
40675;SDS011;26359;48.750;9.314;2023-11-21T03:10:59;7.93;;;7.40;;
40675;SDS011;26359;48.750;9.314;2023-11-21T03:13:25;7.57;;;6.95;;
40675;SDS011;26359;48.750;9.314;2023-11-21T03:15:50;12.55;;;11.60;;
40675;SDS011;26359;48.750;9.314;2023-11-21T03:18:16;8.10;;;7.47;;
40675;SDS011;26359;48.750;9.314;2023-11-21T03:20:43;5.25;;;4.75;;
40675;SDS011;26359;48.750;9.314;2023-11-21T03:23:11;14.82;;;13.55;;
40675;SDS011;26359;48.750;9.314;2023-11-21T03:25:36;10.40;;;9.50;;
40675;SDS011;26359;48.750;9.314;2023-11-21T03:28:02;6.43;;;4.35;;
40675;SDS011;26359;48.750;9.314;2023-11-21T03:30:28;17.00;;;15.80;;
40675;SDS011;26359;48.750;9.314;2023-11-21T03:32:53;6.07;;;5.63;;
40675;SDS011;26359;48.750;9.314;2023-11-21T03:35:19;11.43;;;10.77;;
40675;SDS011;26359;48.750;9.314;2023-11-21T03:37:46;7.68;;;5.32;;
40675;SDS011;26359;48.750;9.314;2023-11-21T03:40:11;5.05;;;4.55;;
40675;SDS011;26359;48.750;9.314;2023-11-21T03:42:37;4.38;;;3.88;;
40675;SDS011;26359;48.750;9.314;2023-11-21T03:45:04;5.60;;;5.20;;
40675;SDS011;26359;48.750;9.314;2023-11-21T03:47:30;11.27;;;10.57;;
40675;SDS011;26359;48.750;9.314;2023-11-21T03:49:56;15.63;;;14.77;;
40675;SDS011;26359;48.750;9.314;2023-11-21T03:52:22;15.07;;;14.15;;
40675;SDS011;26359;48.750;9.314;2023-11-21T03:54:47;10.73;;;9.98;;
40675;SDS011;26359;48.750;9.314;2023-11-21T03:57:13;16.67;;;15.40;;
40675;SDS011;26359;48.750;9.314;2023-11-21T03:59:42;12.43;;;11.73;;
40675;SDS011;26359;48.750;9.314;2023-11-21T04:02:08;7.28;;;6.57;;
40675;SDS011;26359;48.750;9.314;2023-11-21T04:04:34;9.90;;;9.18;;
40675;SDS011;26359;48.750;9.314;2023-11-21T04:07:01;10.90;;;10.05;;
40675;SDS011;26359;48.750;9.314;2023-11-21T04:09:26;7.47;;;6.97;;
40675;SDS011;26359;48.750;9.314;2023-11-21T04:11:52;6.80;;;5.15;;
40675;SDS011;26359;48.750;9.314;2023-11-21T04:14:18;11.48;;;10.75;;
40675;SDS011;26359;48.750;9.314;2023-11-21T04:16:43;6.82;;;4.45;;
40675;SDS011;26359;48.750;9.314;2023-11-21T04:19:09;4.40;;;4.03;;
40675;SDS011;26359;48.750;9.314;2023-11-21T04:21:43;4.20;;;3.63;;
40675;SDS011;26359;48.750;9.314;2023-11-21T04:24:09;11.30;;;10.40;;
40675;SDS011;26359;48.750;9.314;2023-11-21T04:26:35;8.00;;;7.40;;
40675;SDS011;26359;48.750;9.314;2023-11-21T04:29:01;6.10;;;5.70;;
40675;SDS011;26359;48.750;9.314;2023-11-21T04:31:26;6.15;;;5.63;;
40675;SDS011;26359;48.750;9.314;2023-11-21T04:33:52;7.90;;;7.10;;
40675;SDS011;26359;48.750;9.314;2023-11-21T04:36:18;7.65;;;7.07;;
40675;SDS011;26359;48.750;9.314;2023-11-21T04:38:44;7.22;;;6.68;;
40675;SDS011;26359;48.750;9.314;2023-11-21T04:41:10;7.00;;;6.60;;
40675;SDS011;26359;48.750;9.314;2023-11-21T04:43:36;12.38;;;11.73;;
40675;SDS011;26359;48.750;9.314;2023-11-21T04:46:02;24.65;;;23.40;;
40675;SDS011;26359;48.750;9.314;2023-11-21T04:48:27;8.82;;;8.23;;
40675;SDS011;26359;48.750;9.314;2023-11-21T04:50:53;10.85;;;10.13;;
40675;SDS011;26359;48.750;9.314;2023-11-21T04:53:19;5.13;;;4.28;;
40675;SDS011;26359;48.750;9.314;2023-11-21T04:55:44;13.70;;;12.98;;
40675;SDS011;26359;48.750;9.314;2023-11-21T04:58:10;8.95;;;8.35;;
40675;SDS011;26359;48.750;9.314;2023-11-21T05:00:37;5.97;;;5.13;;
40675;SDS011;26359;48.750;9.314;2023-11-21T05:03:03;7.43;;;6.82;;
40675;SDS011;26359;48.750;9.314;2023-11-21T05:05:29;6.50;;;6.20;;
40675;SDS011;26359;48.750;9.314;2023-11-21T05:07:55;14.65;;;13.75;;
40675;SDS011;26359;48.750;9.314;2023-11-21T05:10:20;10.13;;;9.63;;
40675;SDS011;26359;48.750;9.314;2023-11-21T05:12:47;11.00;;;10.50;;
40675;SDS011;26359;48.750;9.314;2023-11-21T05:15:15;7.15;;;6.75;;
40675;SDS011;26359;48.750;9.314;2023-11-21T05:17:41;5.65;;;4.43;;
40675;SDS011;26359;48.750;9.314;2023-11-21T05:20:07;33.33;;;31.60;;
40675;SDS011;26359;48.750;9.314;2023-11-21T05:22:34;9.45;;;8.85;;
40675;SDS011;26359;48.750;9.314;2023-11-21T05:25:01;11.75;;;11.18;;
40675;SDS011;26359;48.750;9.314;2023-11-21T05:27:28;6.63;;;6.13;;
40675;SDS011;26359;48.750;9.314;2023-11-21T05:29:57;7.22;;;6.72;;
40675;SDS011;26359;48.750;9.314;2023-11-21T05:32:23;10.25;;;9.73;;
40675;SDS011;26359;48.750;9.314;2023-11-21T05:34:49;7.95;;;7.53;;
40675;SDS011;26359;48.750;9.314;2023-11-21T05:37:15;6.60;;;6.10;;
40675;SDS011;26359;48.750;9.314;2023-11-21T05:39:42;7.05;;;6.55;;
40675;SDS011;26359;48.750;9.314;2023-11-21T05:42:08;9.73;;;9.02;;
40675;SDS011;26359;48.750;9.314;2023-11-21T05:44:35;8.93;;;8.18;;
40675;SDS011;26359;48.750;9.314;2023-11-21T05:47:02;7.82;;;7.32;;
40675;SDS011;26359;48.750;9.314;2023-11-21T05:49:28;15.00;;;14.15;;
40675;SDS011;26359;48.750;9.314;2023-11-21T05:51:54;10.90;;;10.20;;
40675;SDS011;26359;48.750;9.314;2023-11-21T05:54:20;14.77;;;13.98;;
40675;SDS011;26359;48.750;9.314;2023-11-21T05:56:47;8.20;;;7.60;;
40675;SDS011;26359;48.750;9.314;2023-11-21T05:59:12;14.27;;;13.50;;
40675;SDS011;26359;48.750;9.314;2023-11-21T06:01:38;14.43;;;13.70;;
40675;SDS011;26359;48.750;9.314;2023-11-21T06:04:04;10.90;;;10.30;;
40675;SDS011;26359;48.750;9.314;2023-11-21T06:06:30;12.40;;;11.60;;
40675;SDS011;26359;48.750;9.314;2023-11-21T06:08:56;13.40;;;12.70;;
40675;SDS011;26359;48.750;9.314;2023-11-21T06:11:22;11.75;;;11.00;;
40675;SDS011;26359;48.750;9.314;2023-11-21T06:13:49;16.65;;;15.65;;
40675;SDS011;26359;48.750;9.314;2023-11-21T06:16:15;25.40;;;24.10;;
40675;SDS011;26359;48.750;9.314;2023-11-21T06:18:43;22.83;;;21.42;;
40675;SDS011;26359;48.750;9.314;2023-11-21T06:21:09;6.97;;;6.60;;
40675;SDS011;26359;48.750;9.314;2023-11-21T06:23:35;7.90;;;7.40;;
40675;SDS011;26359;48.750;9.314;2023-11-21T06:26:01;8.57;;;8.00;;
40675;SDS011;26359;48.750;9.314;2023-11-21T06:28:26;13.10;;;12.35;;
40675;SDS011;26359;48.750;9.314;2023-11-21T06:30:52;12.20;;;11.30;;
40675;SDS011;26359;48.750;9.314;2023-11-21T06:33:18;6.80;;;6.20;;
40675;SDS011;26359;48.750;9.314;2023-11-21T06:35:44;8.15;;;7.65;;
40675;SDS011;26359;48.750;9.314;2023-11-21T06:38:09;8.15;;;7.57;;
40675;SDS011;26359;48.750;9.314;2023-11-21T06:40:35;12.48;;;11.82;;
40675;SDS011;26359;48.750;9.314;2023-11-21T06:43:01;10.13;;;9.63;;
40675;SDS011;26359;48.750;9.314;2023-11-21T06:45:27;7.88;;;7.47;;
40675;SDS011;26359;48.750;9.314;2023-11-21T06:47:52;11.48;;;10.82;;
40675;SDS011;26359;48.750;9.314;2023-11-21T06:50:18;11.25;;;10.55;;
40675;SDS011;26359;48.750;9.314;2023-11-21T06:52:43;15.30;;;14.35;;
40675;SDS011;26359;48.750;9.314;2023-11-21T06:55:09;13.35;;;12.60;;
40675;SDS011;26359;48.750;9.314;2023-11-21T06:57:35;13.07;;;12.30;;
40675;SDS011;26359;48.750;9.314;2023-11-21T07:00:02;10.25;;;9.60;;
40675;SDS011;26359;48.750;9.314;2023-11-21T07:02:28;12.70;;;12.00;;
40675;SDS011;26359;48.750;9.314;2023-11-21T07:04:54;6.53;;;6.00;;
40675;SDS011;26359;48.750;9.314;2023-11-21T07:07:19;8.48;;;7.68;;
40675;SDS011;26359;48.750;9.314;2023-11-21T07:09:45;7.32;;;6.82;;
40675;SDS011;26359;48.750;9.314;2023-11-21T07:12:10;6.30;;;5.72;;
40675;SDS011;26359;48.750;9.314;2023-11-21T07:14:36;11.43;;;10.75;;
40675;SDS011;26359;48.750;9.314;2023-11-21T07:17:04;9.30;;;8.55;;
40675;SDS011;26359;48.750;9.314;2023-11-21T07:19:29;5.80;;;5.38;;
40675;SDS011;26359;48.750;9.314;2023-11-21T07:21:55;5.97;;;5.57;;
40675;SDS011;26359;48.750;9.314;2023-11-21T07:24:21;8.18;;;7.60;;
40675;SDS011;26359;48.750;9.314;2023-11-21T07:26:48;6.05;;;5.55;;
40675;SDS011;26359;48.750;9.314;2023-11-21T07:29:13;5.53;;;5.15;;
40675;SDS011;26359;48.750;9.314;2023-11-21T07:31:39;6.75;;;6.25;;
40675;SDS011;26359;48.750;9.314;2023-11-21T07:34:06;7.85;;;7.22;;
40675;SDS011;26359;48.750;9.314;2023-11-21T07:36:33;6.93;;;6.47;;
40675;SDS011;26359;48.750;9.314;2023-11-21T07:38:58;12.95;;;12.07;;
40675;SDS011;26359;48.750;9.314;2023-11-21T07:41:24;7.65;;;5.22;;
40675;SDS011;26359;48.750;9.314;2023-11-21T07:43:49;5.28;;;4.97;;
40675;SDS011;26359;48.750;9.314;2023-11-21T07:46:15;5.60;;;5.20;;
40675;SDS011;26359;48.750;9.314;2023-11-21T07:48:41;10.77;;;10.18;;
40675;SDS011;26359;48.750;9.314;2023-11-21T07:51:07;5.63;;;5.13;;
40675;SDS011;26359;48.750;9.314;2023-11-21T07:53:33;4.55;;;4.13;;
40675;SDS011;26359;48.750;9.314;2023-11-21T07:56:06;6.93;;;6.32;;
40675;SDS011;26359;48.750;9.314;2023-11-21T07:58:35;8.00;;;7.50;;
40675;SDS011;26359;48.750;9.314;2023-11-21T08:01:01;8.52;;;6.50;;
40675;SDS011;26359;48.750;9.314;2023-11-21T08:03:27;9.38;;;8.57;;
40675;SDS011;26359;48.750;9.314;2023-11-21T08:05:55;10.93;;;10.25;;
40675;SDS011;26359;48.750;9.314;2023-11-21T08:08:21;12.50;;;11.45;;
40675;SDS011;26359;48.750;9.314;2023-11-21T08:10:47;12.45;;;11.52;;
40675;SDS011;26359;48.750;9.314;2023-11-21T08:13:13;10.88;;;10.07;;
40675;SDS011;26359;48.750;9.314;2023-11-21T08:15:40;10.40;;;9.57;;
40675;SDS011;26359;48.750;9.314;2023-11-21T08:18:10;11.07;;;10.32;;
40675;SDS011;26359;48.750;9.314;2023-11-21T08:20:35;9.82;;;9.23;;
40675;SDS011;26359;48.750;9.314;2023-11-21T08:23:03;8.63;;;8.07;;
40675;SDS011;26359;48.750;9.314;2023-11-21T08:25:30;8.35;;;7.75;;
40675;SDS011;26359;48.750;9.314;2023-11-21T08:27:56;8.32;;;7.82;;
40675;SDS011;26359;48.750;9.314;2023-11-21T08:30:22;6.20;;;5.70;;
40675;SDS011;26359;48.750;9.314;2023-11-21T08:32:49;6.35;;;5.85;;
40675;SDS011;26359;48.750;9.314;2023-11-21T08:35:16;5.72;;;5.28;;
40675;SDS011;26359;48.750;9.314;2023-11-21T08:37:41;8.45;;;7.90;;
40675;SDS011;26359;48.750;9.314;2023-11-21T08:40:08;11.95;;;11.18;;
40675;SDS011;26359;48.750;9.314;2023-11-21T08:42:37;11.52;;;10.70;;
40675;SDS011;26359;48.750;9.314;2023-11-21T08:45:03;9.25;;;8.65;;
40675;SDS011;26359;48.750;9.314;2023-11-21T08:47:29;8.50;;;7.90;;
40675;SDS011;26359;48.750;9.314;2023-11-21T08:49:55;13.98;;;13.07;;
40675;SDS011;26359;48.750;9.314;2023-11-21T08:52:20;9.05;;;8.35;;
40675;SDS011;26359;48.750;9.314;2023-11-21T08:54:49;4.70;;;4.32;;
40675;SDS011;26359;48.750;9.314;2023-11-21T08:57:21;5.72;;;5.13;;
40675;SDS011;26359;48.750;9.314;2023-11-21T08:59:47;6.05;;;5.55;;
40675;SDS011;26359;48.750;9.314;2023-11-21T09:02:13;5.57;;;4.43;;
40675;SDS011;26359;48.750;9.314;2023-11-21T09:04:38;8.30;;;7.80;;
40675;SDS011;26359;48.750;9.314;2023-11-21T09:07:03;8.38;;;7.88;;
40675;SDS011;26359;48.750;9.314;2023-11-21T09:09:30;14.23;;;13.32;;
40675;SDS011;26359;48.750;9.314;2023-11-21T09:11:55;23.08;;;21.73;;
40675;SDS011;26359;48.750;9.314;2023-11-21T09:14:21;14.30;;;13.48;;
40675;SDS011;26359;48.750;9.314;2023-11-21T09:16:47;7.43;;;6.97;;
40675;SDS011;26359;48.750;9.314;2023-11-21T09:19:12;6.72;;;6.28;;
40675;SDS011;26359;48.750;9.314;2023-11-21T09:21:39;7.72;;;7.32;;
40675;SDS011;26359;48.750;9.314;2023-11-21T09:24:04;7.03;;;6.43;;
40675;SDS011;26359;48.750;9.314;2023-11-21T09:26:30;7.43;;;6.82;;
40675;SDS011;26359;48.750;9.314;2023-11-21T09:28:56;5.50;;;5.10;;
40675;SDS011;26359;48.750;9.314;2023-11-21T09:31:22;5.75;;;5.45;;
40675;SDS011;26359;48.750;9.314;2023-11-21T09:33:48;6.78;;;6.38;;
40675;SDS011;26359;48.750;9.314;2023-11-21T09:36:14;11.30;;;10.68;;
40675;SDS011;26359;48.750;9.314;2023-11-21T09:38:40;5.15;;;4.70;;
40675;SDS011;26359;48.750;9.314;2023-11-21T09:41:07;11.60;;;10.90;;
40675;SDS011;26359;48.750;9.314;2023-11-21T09:44:04;8.32;;;7.85;;
40675;SDS011;26359;48.750;9.314;2023-11-21T09:46:39;8.98;;;8.35;;
40675;SDS011;26359;48.750;9.314;2023-11-21T09:49:07;7.80;;;7.28;;
40675;SDS011;26359;48.750;9.314;2023-11-21T09:51:37;7.50;;;7.00;;
40675;SDS011;26359;48.750;9.314;2023-11-21T09:54:05;9.02;;;8.30;;
40675;SDS011;26359;48.750;9.314;2023-11-21T09:56:34;7.20;;;6.38;;
40675;SDS011;26359;48.750;9.314;2023-11-21T09:59:00;9.18;;;8.48;;
40675;SDS011;26359;48.750;9.314;2023-11-21T10:01:31;9.77;;;9.07;;
40675;SDS011;26359;48.750;9.314;2023-11-21T10:03:58;10.30;;;9.18;;
40675;SDS011;26359;48.750;9.314;2023-11-21T10:06:24;7.45;;;5.97;;
40675;SDS011;26359;48.750;9.314;2023-11-21T10:08:51;9.25;;;8.70;;
40675;SDS011;26359;48.750;9.314;2023-11-21T10:11:18;8.77;;;8.07;;
40675;SDS011;26359;48.750;9.314;2023-11-21T10:13:46;6.65;;;6.18;;
40675;SDS011;26359;48.750;9.314;2023-11-21T10:16:15;6.57;;;6.00;;
40675;SDS011;26359;48.750;9.314;2023-11-21T10:18:46;7.30;;;6.90;;
40675;SDS011;26359;48.750;9.314;2023-11-21T10:21:14;7.45;;;6.85;;
40675;SDS011;26359;48.750;9.314;2023-11-21T10:23:40;6.72;;;4.82;;
40675;SDS011;26359;48.750;9.314;2023-11-21T10:26:06;5.85;;;5.45;;
40675;SDS011;26359;48.750;9.314;2023-11-21T10:28:35;5.57;;;5.07;;
40675;SDS011;26359;48.750;9.314;2023-11-21T10:31:06;8.30;;;7.72;;
40675;SDS011;26359;48.750;9.314;2023-11-21T10:33:32;12.23;;;11.20;;
40675;SDS011;26359;48.750;9.314;2023-11-21T10:35:57;11.85;;;10.95;;
40675;SDS011;26359;48.750;9.314;2023-11-21T10:38:24;16.10;;;15.15;;
40675;SDS011;26359;48.750;9.314;2023-11-21T10:40:52;22.95;;;21.65;;
40675;SDS011;26359;48.750;9.314;2023-11-21T10:43:19;22.60;;;21.35;;
40675;SDS011;26359;48.750;9.314;2023-11-21T10:45:49;10.18;;;9.48;;
40675;SDS011;26359;48.750;9.314;2023-11-21T10:48:15;21.60;;;20.30;;
40675;SDS011;26359;48.750;9.314;2023-11-21T10:50:41;25.73;;;24.08;;
40675;SDS011;26359;48.750;9.314;2023-11-21T10:53:07;22.95;;;21.52;;
40675;SDS011;26359;48.750;9.314;2023-11-21T10:55:33;33.10;;;31.20;;
40675;SDS011;26359;48.750;9.314;2023-11-21T10:58:00;24.15;;;22.88;;
40675;SDS011;26359;48.750;9.314;2023-11-21T11:00:27;13.57;;;12.52;;
40675;SDS011;26359;48.750;9.314;2023-11-21T11:02:54;15.80;;;14.88;;
40675;SDS011;26359;48.750;9.314;2023-11-21T11:05:21;8.82;;;8.15;;
40675;SDS011;26359;48.750;9.314;2023-11-21T11:08:08;7.68;;;7.13;;
40675;SDS011;26359;48.750;9.314;2023-11-21T11:10:36;9.35;;;8.85;;
40675;SDS011;26359;48.750;9.314;2023-11-21T11:13:02;5.63;;;5.32;;
40675;SDS011;26359;48.750;9.314;2023-11-21T11:15:28;5.57;;;5.28;;
40675;SDS011;26359;48.750;9.314;2023-11-21T11:17:54;4.43;;;4.03;;
40675;SDS011;26359;48.750;9.314;2023-11-21T11:20:25;6.40;;;6.10;;
40675;SDS011;26359;48.750;9.314;2023-11-21T11:28:16;9.63;;;9.02;;
40675;SDS011;26359;48.750;9.314;2023-11-21T11:33:31;10.07;;;9.57;;
40675;SDS011;26359;48.750;9.314;2023-11-21T11:39:27;7.95;;;7.43;;
40675;SDS011;26359;48.750;9.314;2023-11-21T11:42:01;9.90;;;8.95;;
40675;SDS011;26359;48.750;9.314;2023-11-21T11:47:14;10.63;;;10.07;;
40675;SDS011;26359;48.750;9.314;2023-11-21T11:52:46;6.35;;;6.03;;
40675;SDS011;26359;48.750;9.314;2023-11-21T11:55:14;8.88;;;8.45;;
40675;SDS011;26359;48.750;9.314;2023-11-21T11:57:43;4.63;;;4.43;;
40675;SDS011;26359;48.750;9.314;2023-11-21T12:02:55;5.00;;;4.80;;
40675;SDS011;26359;48.750;9.314;2023-11-21T12:05:27;5.57;;;5.28;;
40675;SDS011;26359;48.750;9.314;2023-11-21T12:07:54;6.40;;;6.07;;
40675;SDS011;26359;48.750;9.314;2023-11-21T12:10:23;5.45;;;5.15;;
40675;SDS011;26359;48.750;9.314;2023-11-21T12:12:51;5.93;;;5.55;;
40675;SDS011;26359;48.750;9.314;2023-11-21T12:15:17;10.50;;;9.70;;
40675;SDS011;26359;48.750;9.314;2023-11-21T12:17:44;7.72;;;7.28;;
40675;SDS011;26359;48.750;9.314;2023-11-21T12:20:11;6.22;;;5.82;;
40675;SDS011;26359;48.750;9.314;2023-11-21T12:22:49;7.63;;;7.13;;
40675;SDS011;26359;48.750;9.314;2023-11-21T12:25:23;8.68;;;8.18;;
40675;SDS011;26359;48.750;9.314;2023-11-21T12:27:52;16.20;;;15.35;;
40675;SDS011;26359;48.750;9.314;2023-11-21T12:30:19;9.40;;;8.90;;
40675;SDS011;26359;48.750;9.314;2023-11-21T12:32:53;17.20;;;16.30;;
40675;SDS011;26359;48.750;9.314;2023-11-21T12:35:21;31.42;;;29.77;;
40675;SDS011;26359;48.750;9.314;2023-11-21T12:37:48;13.98;;;13.25;;
40675;SDS011;26359;48.750;9.314;2023-11-21T12:40:17;32.78;;;31.08;;
40675;SDS011;26359;48.750;9.314;2023-11-21T12:42:46;24.92;;;23.63;;
40675;SDS011;26359;48.750;9.314;2023-11-21T12:47:45;18.30;;;17.35;;
40675;SDS011;26359;48.750;9.314;2023-11-21T12:50:20;32.10;;;30.40;;
40675;SDS011;26359;48.750;9.314;2023-11-21T12:52:53;28.90;;;27.48;;
40675;SDS011;26359;48.750;9.314;2023-11-21T12:55:20;32.03;;;30.33;;
40675;SDS011;26359;48.750;9.314;2023-11-21T12:57:49;36.00;;;34.10;;
40675;SDS011;26359;48.750;9.314;2023-11-21T13:00:17;30.85;;;29.25;;
40675;SDS011;26359;48.750;9.314;2023-11-21T13:02:53;23.85;;;22.63;;
40675;SDS011;26359;48.750;9.314;2023-11-21T13:05:23;25.15;;;23.85;;
40675;SDS011;26359;48.750;9.314;2023-11-21T13:07:53;29.95;;;28.45;;
40675;SDS011;26359;48.750;9.314;2023-11-21T13:10:23;27.25;;;25.85;;
40675;SDS011;26359;48.750;9.314;2023-11-21T13:12:52;29.15;;;27.52;;
40675;SDS011;26359;48.750;9.314;2023-11-21T13:15:18;16.85;;;16.00;;
40675;SDS011;26359;48.750;9.314;2023-11-21T13:17:43;15.85;;;14.82;;
40675;SDS011;26359;48.750;9.314;2023-11-21T13:20:10;16.48;;;15.68;;
40675;SDS011;26359;48.750;9.314;2023-11-21T13:22:53;14.38;;;13.68;;
40675;SDS011;26359;48.750;9.314;2023-11-21T13:25:22;14.50;;;13.77;;
40675;SDS011;26359;48.750;9.314;2023-11-21T13:27:54;23.98;;;22.77;;
40675;SDS011;26359;48.750;9.314;2023-11-21T13:30:20;22.65;;;21.55;;
40675;SDS011;26359;48.750;9.314;2023-11-21T13:32:52;27.80;;;26.40;;
40675;SDS011;26359;48.750;9.314;2023-11-21T13:35:22;29.85;;;28.40;;
40675;SDS011;26359;48.750;9.314;2023-11-21T13:37:56;18.08;;;17.17;;
40675;SDS011;26359;48.750;9.314;2023-11-21T13:40:25;14.27;;;13.48;;
40675;SDS011;26359;48.750;9.314;2023-11-21T13:42:55;13.13;;;12.52;;
40675;SDS011;26359;48.750;9.314;2023-11-21T13:45:24;11.27;;;10.63;;
40675;SDS011;26359;48.750;9.314;2023-11-21T13:47:52;16.20;;;15.10;;
40675;SDS011;26359;48.750;9.314;2023-11-21T13:50:23;11.77;;;11.18;;
40675;SDS011;26359;48.750;9.314;2023-11-21T13:52:57;10.25;;;9.73;;
40675;SDS011;26359;48.750;9.314;2023-11-21T13:55:28;28.73;;;27.15;;
40675;SDS011;26359;48.750;9.314;2023-11-21T13:57:53;17.60;;;16.67;;
40675;SDS011;26359;48.750;9.314;2023-11-21T14:00:19;11.65;;;10.98;;
40675;SDS011;26359;48.750;9.314;2023-11-21T14:03:03;13.85;;;13.15;;
40675;SDS011;26359;48.750;9.314;2023-11-21T14:05:33;9.38;;;8.80;;
40675;SDS011;26359;48.750;9.314;2023-11-21T14:07:59;8.15;;;7.45;;
40675;SDS011;26359;48.750;9.314;2023-11-21T14:10:32;9.50;;;8.95;;
40675;SDS011;26359;48.750;9.314;2023-11-21T14:13:05;25.85;;;24.55;;
40675;SDS011;26359;48.750;9.314;2023-11-21T14:15:31;21.25;;;20.15;;
40675;SDS011;26359;48.750;9.314;2023-11-21T14:17:58;4.10;;;3.90;;
40675;SDS011;26359;48.750;9.314;2023-11-21T14:20:25;8.93;;;8.43;;
40675;SDS011;26359;48.750;9.314;2023-11-21T14:22:50;5.55;;;5.25;;
40675;SDS011;26359;48.750;9.314;2023-11-21T14:25:17;25.10;;;23.83;;
40675;SDS011;26359;48.750;9.314;2023-11-21T14:27:42;11.43;;;10.73;;
40675;SDS011;26359;48.750;9.314;2023-11-21T14:30:08;10.00;;;9.48;;
40675;SDS011;26359;48.750;9.314;2023-11-21T14:32:37;10.95;;;10.35;;
40675;SDS011;26359;48.750;9.314;2023-11-21T14:35:03;8.55;;;8.02;;
40675;SDS011;26359;48.750;9.314;2023-11-21T14:37:29;10.20;;;9.70;;
40675;SDS011;26359;48.750;9.314;2023-11-21T14:39:54;6.15;;;5.82;;
40675;SDS011;26359;48.750;9.314;2023-11-21T14:42:20;6.85;;;6.45;;
40675;SDS011;26359;48.750;9.314;2023-11-21T14:44:50;8.45;;;8.05;;
40675;SDS011;26359;48.750;9.314;2023-11-21T14:47:16;7.13;;;6.75;;
40675;SDS011;26359;48.750;9.314;2023-11-21T14:49:49;13.95;;;13.23;;
40675;SDS011;26359;48.750;9.314;2023-11-21T14:52:19;13.82;;;13.05;;
40675;SDS011;26359;48.750;9.314;2023-11-21T14:55:04;7.10;;;6.68;;
40675;SDS011;26359;48.750;9.314;2023-11-21T14:57:48;6.63;;;6.13;;
40675;SDS011;26359;48.750;9.314;2023-11-21T15:00:19;5.30;;;4.55;;